Time;durP1;ratioP1;P1;durP2;ratioP2;P2;SDS_P1;SDS_P2;PMS_P1;PMS_P2;Temp;Humidity;BMP_temperature;BMP_pressure;BME280_temperature;BME280_humidity;BME280_pressure;Samples;Min_cycle;Max_cycle;Signal;HPM_P1;HPM_P2
2022/06/13 00:01:39;;;;;;;6.30;4.45;;;;;;;13.26;67.48;97353.79;1721956;83;28177;-76
2022/06/13 00:04:07;;;;;;;7.17;4.62;;;;;;;13.22;67.52;97349.34;1721750;83;25886;-76
2022/06/13 00:06:35;;;;;;;5.78;4.30;;;;;;;13.16;67.56;97342.11;1721870;83;25759;-75
2022/06/13 00:09:04;;;;;;;5.85;4.40;;;;;;;13.13;67.61;97343.09;1721965;83;25784;-76
2022/06/13 00:11:31;;;;;;;6.83;4.70;;;;;;;13.06;67.77;97341.81;1722028;83;25831;-77
2022/06/13 00:13:58;;;;;;;5.22;4.72;;;;;;;13.03;67.82;97332.80;1721843;83;28444;-75
2022/06/13 00:16:25;;;;;;;8.13;4.80;;;;;;;13.03;67.85;97338.75;1737388;81;26401;-76
2022/06/13 00:18:52;;;;;;;7.70;4.50;;;;;;;13.04;67.90;97335.78;1792946;80;25696;-77
2022/06/13 00:21:24;;;;;;;4.97;4.42;;;;;;;13.01;67.92;97332.20;1793367;79;25416;-76
2022/06/13 00:23:51;;;;;;;7.40;4.00;;;;;;;12.98;67.95;97321.28;1686085;85;25795;-78
2022/06/13 00:26:24;;;;;;;5.90;4.45;;;;;;;12.94;68.13;97320.08;1685845;85;27421;-76
2022/06/13 00:28:52;;;;;;;5.03;4.03;;;;;;;12.95;68.18;97318.20;1685801;85;25804;-76
2022/06/13 00:31:19;;;;;;;5.17;4.22;;;;;;;12.93;68.15;97318.95;1686663;84;25851;-76
2022/06/13 00:33:46;;;;;;;4.60;4.00;;;;;;;12.88;68.12;97314.76;1691252;84;25781;-75
2022/06/13 00:36:14;;;;;;;4.87;4.47;;;;;;;12.86;68.20;97310.09;1691134;84;25722;-76
2022/06/13 00:38:41;;;;;;;6.95;4.30;;;;;;;12.83;68.33;97303.24;1691378;84;27394;-76
2022/06/13 00:41:11;;;;;;;6.62;4.22;;;;;;;12.82;68.29;97302.94;1691099;84;25902;-77
2022/06/13 00:43:40;;;;;;;6.08;4.53;;;;;;;12.81;68.39;97304.52;1637105;87;25839;-76
2022/06/13 00:46:32;;;;;;;7.67;4.33;;;;;;;12.77;68.42;97302.81;1632961;87;25994;-75
2022/06/13 00:49:07;;;;;;;6.50;4.35;;;;;;;12.70;68.35;97299.34;1633185;87;32482;-76
2022/06/13 00:51:39;;;;;;;5.87;4.30;;;;;;;12.63;68.55;97294.55;1565870;91;27539;-77
2022/06/13 00:54:07;;;;;;;4.45;4.08;;;;;;;12.60;68.69;97299.88;1565905;91;25844;-77
2022/06/13 00:56:36;;;;;;;5.25;4.62;;;;;;;12.59;68.75;97294.16;1566016;91;25817;-76
2022/06/13 00:59:06;;;;;;;5.28;4.83;;;;;;;12.55;68.70;97301.63;1565707;91;26202;-77
2022/06/13 01:01:34;;;;;;;7.30;4.47;;;;;;;12.50;68.75;97292.82;1565762;91;25863;-75
2022/06/13 01:04:06;;;;;;;4.70;4.30;;;;;;;12.44;68.86;97292.36;1555520;92;28198;-75
2022/06/13 01:06:44;;;;;;;5.12;4.72;;;;;;;12.41;68.90;97296.89;1555526;92;25836;-75
2022/06/13 01:09:14;;;;;;;5.53;4.40;;;;;;;12.36;69.01;97295.37;1555328;92;25849;-75
2022/06/13 01:11:46;;;;;;;6.17;4.60;;;;;;;12.32;69.05;97290.66;1555309;92;25841;-75
2022/06/13 01:14:29;;;;;;;5.83;4.08;;;;;;;12.27;69.08;97291.31;1553070;92;25902;-76
2022/06/13 01:17:24;;;;;;;5.10;4.58;;;;;;;12.19;69.18;97289.74;1551256;92;27494;-75
2022/06/13 01:20:21;;;;;;;7.78;4.17;;;;;;;12.13;69.27;97278.97;1562079;88;26634;-75
2022/06/13 01:23:21;;;;;;;5.22;4.00;;;;;;;12.10;69.46;97276.70;1612438;88;25383;-76
2022/06/13 01:26:21;;;;;;;6.03;4.22;;;;;;;12.08;69.47;97274.22;1613162;88;26275;-76
2022/06/13 01:29:39;;;;;;;6.55;4.97;;;;;;;12.07;69.50;97279.88;1613528;88;25920;-76
2022/06/13 01:32:33;;;;;;;8.10;4.90;;;;;;;12.08;69.66;97274.75;1610336;88;27417;-75
2022/06/13 01:35:26;;;;;;;4.75;4.35;;;;;;;12.03;69.66;97270.02;1606318;89;25780;-76
2022/06/13 01:38:10;;;;;;;;;;;;;;;11.98;69.69;97267.67;1608744;89;25989;-75
2022/06/13 01:41:06;;;;;;;4.60;4.20;;;;;;;11.94;70.08;97264.61;1606425;89;26086;-75
2022/06/13 01:43:59;;;;;;;6.05;4.80;;;;;;;11.83;69.89;97263.44;1606481;88;25848;-76
2022/06/13 01:46:55;;;;;;;6.17;4.67;;;;;;;11.79;70.12;97266.30;1619425;86;27484;-78
2022/06/13 01:49:49;;;;;;;5.28;4.78;;;;;;;11.74;70.13;97257.98;1667641;86;25914;-76
2022/06/13 01:52:45;;;;;;;7.10;4.30;;;;;;;11.73;70.39;97263.09;1667650;86;25838;-76
2022/06/13 01:55:37;;;;;;;5.00;4.50;;;;;;;11.76;70.38;97259.16;1708555;82;25780;-75
2022/06/13 01:58:32;;;;;;;3.77;3.47;;;;;;;11.77;70.34;97256.75;1698489;84;26002;-74
2022/06/13 02:01:06;;;;;;;4.80;4.30;;;;;;;11.73;70.24;97253.62;1639418;87;27421;-77
2022/06/13 02:03:44;;;;;;;4.42;4.03;;;;;;;11.71;70.16;97251.66;1639352;87;25894;-75
2022/06/13 02:06:18;;;;;;;4.83;4.05;;;;;;;11.68;70.16;97252.13;1639492;87;25763;-77
2022/06/13 02:09:02;;;;;;;4.33;3.92;;;;;;;11.63;70.28;97242.49;1639444;87;25890;-75
2022/06/13 02:11:40;;;;;;;7.45;4.12;;;;;;;11.63;70.25;97243.84;1639441;87;25928;-77
2022/06/13 02:14:21;;;;;;;4.95;4.45;;;;;;;11.61;70.20;97245.11;1639412;87;26841;-76
2022/06/13 02:17:20;;;;;;;5.42;4.35;;;;;;;11.53;70.24;97236.77;1613056;88;25832;-75
2022/06/13 02:20:07;;;;;;;7.17;4.85;;;;;;;11.47;70.36;97239.02;1613278;88;25859;-76
2022/06/13 02:22:47;;;;;;;5.00;4.60;;;;;;;11.35;70.52;97231.32;1555741;91;26582;-75
2022/06/13 02:25:30;;;;;;;5.05;4.58;;;;;;;11.27;70.72;97232.92;1575953;91;25355;-75
2022/06/13 02:28:05;;;;;;;5.30;4.80;;;;;;;11.27;70.85;97228.88;1576175;91;27412;-75
2022/06/13 02:30:37;;;;;;;6.33;4.72;;;;;;;11.18;70.93;97229.67;1504851;95;25863;-75
2022/06/13 02:33:11;;;;;;;4.95;4.45;;;;;;;11.09;71.07;97221.02;1486126;95;25905;-75
2022/06/13 02:35:46;;;;;;;5.58;4.20;;;;;;;11.07;71.31;97223.11;1486151;96;25793;-75
2022/06/13 02:38:27;;;;;;;5.08;4.53;;;;;;;11.06;71.42;97220.63;1491052;94;25796;-75
2022/06/13 02:41:04;;;;;;;6.42;4.58;;;;;;;11.11;71.52;97218.07;1515497;94;27483;-75
2022/06/13 02:43:38;;;;;;;4.90;4.42;;;;;;;11.07;71.63;97215.52;1512414;94;25863;-75
2022/06/13 02:46:12;;;;;;;6.35;4.35;;;;;;;11.06;71.79;97217.40;1513365;94;25818;-75
2022/06/13 02:48:53;;;;;;;8.23;5.60;;;;;;;11.12;71.79;97211.63;1501995;95;25872;-75
2022/06/13 02:51:52;;;;;;;5.65;4.40;;;;;;;11.11;71.57;97214.02;1501922;95;25919;-75
2022/06/13 02:54:33;;;;;;;4.78;4.15;;;;;;;11.01;71.47;97222.61;1484335;95;28109;-75
2022/06/13 02:57:23;;;;;;;7.33;4.70;;;;;;;11.00;71.66;97216.91;1471392;97;25870;-78
2022/06/13 02:59:58;;;;;;;7.78;4.30;;;;;;;11.02;71.83;97228.33;1426000;99;25893;-75
2022/06/13 03:02:30;;;;;;;8.25;4.35;;;;;;;11.04;71.82;97228.94;1442649;99;25606;-76
2022/06/13 03:05:08;;;;;;;7.80;4.22;;;;;;;11.06;71.80;97227.37;1382523;103;25900;-75
2022/06/13 03:07:39;;;;;;;5.53;3.98;;;;;;;11.02;71.77;97228.33;1382368;103;28186;-76
2022/06/13 03:10:14;;;;;;;6.67;4.67;;;;;;;11.03;71.77;97224.58;1374093;104;25919;-75
2022/06/13 03:13:04;;;;;;;4.90;4.30;;;;;;;11.03;71.83;97221.05;1374236;104;25986;-75
2022/06/13 03:15:38;;;;;;;6.62;4.33;;;;;;;11.01;71.87;97225.31;1381693;103;25833;-75
2022/06/13 03:18:15;;;;;;;5.72;4.92;;;;;;;11.03;71.88;97218.34;1379344;104;25819;-75
2022/06/13 03:20:50;;;;;;;7.28;4.70;;;;;;;11.02;71.95;97219.39;1359336;104;27465;-77
2022/06/13 03:23:47;;;;;;;5.72;5.12;;;;;;;11.02;72.02;97222.92;1349798;106;25862;-77
2022/06/13 03:26:21;;;;;;;8.75;5.42;;;;;;;11.02;72.19;97213.47;1339164;107;25973;-75
2022/06/13 03:28:52;;;;;;;6.85;5.08;;;;;;;11.02;72.39;97220.22;1335320;107;26010;-75
2022/06/13 03:31:41;;;;;;;5.37;4.87;;;;;;;10.96;72.44;97210.31;1335764;106;25893;-76
2022/06/13 03:34:22;;;;;;;9.65;5.03;;;;;;;10.98;72.66;97208.22;1402886;102;28399;-75
2022/06/13 03:37:10;;;;;;;6.53;5.20;;;;;;;10.98;72.73;97206.87;1416790;99;25895;-76
2022/06/13 03:39:44;;;;;;;9.20;5.90;;;;;;;11.03;72.91;97207.02;1440157;99;25904;-76
2022/06/13 03:42:19;;;;;;;7.55;5.53;;;;;;;11.08;73.00;97211.26;1457028;95;26040;-77
2022/06/13 03:45:06;;;;;;;7.42;5.30;;;;;;;11.10;72.98;97211.05;1499462;92;25789;-79
2022/06/13 03:47:50;;;;;;;9.28;5.50;;;;;;;11.16;73.02;97206.92;1544123;92;27427;-77
2022/06/13 03:50:23;;;;;;;7.95;5.78;;;;;;;11.24;73.14;97206.34;1543671;92;25783;-79
2022/06/13 03:52:55;;;;;;;8.23;5.00;;;;;;;11.27;73.11;97204.03;1541691;92;25865;-79
2022/06/13 03:55:31;;;;;;;;;;;;;;;11.31;73.12;97206.61;1475624;96;25923;-76
2022/06/13 03:58:08;;;;;;;5.97;4.90;;;;;;;11.37;73.45;97204.88;1445488;99;25920;-77
2022/06/13 04:00:49;;;;;;;9.05;5.85;;;;;;;11.38;73.29;97195.72;1415528;99;27590;-76
2022/06/13 04:03:16;;;;;;;7.25;5.20;;;;;;;11.40;73.26;97193.63;1413291;101;25939;-78
2022/06/13 04:05:57;;;;;;;8.25;6.10;;;;;;;11.44;73.25;97188.09;1413311;101;25862;-78
2022/06/13 04:08:24;;;;;;;9.05;6.22;;;;;;;11.49;73.32;97184.19;1411257;101;26200;-78
2022/06/13 04:11:14;;;;;;;12.98;6.17;;;;;;;11.56;73.44;97180.91;1427399;100;25558;-77
2022/06/13 04:13:55;;;;;;;8.20;5.75;;;;;;;11.62;73.53;97177.83;1441523;99;27524;-75
2022/06/13 04:16:33;;;;;;;9.03;5.90;;;;;;;11.69;73.75;97184.02;1422084;100;25844;-77
2022/06/13 04:19:26;;;;;;;7.90;5.87;;;;;;;11.75;73.78;97181.26;1384969;101;26216;-76
2022/06/13 04:22:20;;;;;;;8.68;6.33;;;;;;;11.82;73.89;97177.98;1399065;101;25966;-77
2022/06/13 04:25:01;;;;;;;6.40;5.80;;;;;;;11.90;73.85;97169.55;1399338;101;26156;-76
2022/06/13 04:27:48;;;;;;;7.85;5.72;;;;;;;12.00;73.91;97172.25;1418825;99;28070;-78
2022/06/13 04:30:19;;;;;;;10.80;6.80;;;;;;;12.07;74.05;97167.08;1404969;100;25855;-77
2022/06/13 04:33:08;;;;;;;18.37;7.20;;;;;;;12.16;74.10;97167.59;1382948;103;26522;-76
2022/06/13 04:35:36;;;;;;;9.65;5.92;;;;;;;12.25;74.26;97174.34;1403030;99;25825;-76
2022/06/13 04:38:07;;;;;;;8.75;6.70;;;;;;;12.34;74.37;97174.32;1400332;101;25885;-79
2022/06/13 04:40:39;;;;;;;9.03;6.85;;;;;;;12.42;74.47;97171.31;1398890;99;27491;-76
2022/06/13 04:43:10;;;;;;;11.63;6.47;;;;;;;12.50;74.52;97170.99;1361469;103;25890;-76
2022/06/13 04:46:08;;;;;;;7.85;7.05;;;;;;;12.58;74.57;97165.25;1380504;102;26040;-79
2022/06/13 04:48:38;;;;;;;8.43;6.78;;;;;;;12.68;74.65;97155.77;1387574;102;25926;-76
2022/06/13 04:51:18;;;;;;;9.63;6.85;;;;;;;12.78;74.83;97152.80;1387911;102;25857;-77
2022/06/13 04:54:14;;;;;;;7.30;6.60;;;;;;;12.89;74.91;97143.04;1416580;98;27453;-76
2022/06/13 04:56:41;;;;;;;10.58;6.85;;;;;;;13.01;75.00;97137.11;1455585;97;25816;-76
2022/06/13 04:59:14;;;;;;;8.83;7.15;;;;;;;13.15;75.19;97130.98;1457740;97;25885;-77
2022/06/13 05:01:49;;;;;;;8.70;7.70;;;;;;;13.26;75.20;97122.86;1487735;96;25852;-78
2022/06/13 05:04:25;;;;;;;9.05;5.97;;;;;;;13.40;75.33;97122.63;1489431;94;25908;-78
2022/06/13 05:06:59;;;;;;;7.85;6.12;;;;;;;13.55;75.35;97117.53;1424610;100;27502;-80
2022/06/13 05:09:33;;;;;;;10.43;6.00;;;;;;;13.70;75.40;97111.92;1435099;99;25947;-78
2022/06/13 05:12:22;;;;;;;7.10;5.80;;;;;;;13.84;75.43;97107.59;1435168;99;25863;-79
2022/06/13 05:15:06;;;;;;;8.93;5.80;;;;;;;14.01;75.59;97099.81;1435278;98;25905;-77
2022/06/13 05:18:10;;;;;;;7.33;5.12;;;;;;;14.18;75.52;97105.84;1458409;97;25814;-78
2022/06/13 05:21:05;;;;;;;5.75;5.00;;;;;;;14.30;75.29;97110.70;1458184;97;27428;-77
2022/06/13 05:23:50;;;;;;;5.67;4.53;;;;;;;14.43;75.01;97106.38;1466234;95;25772;-76
2022/06/13 05:26:17;;;;;;;5.00;4.35;;;;;;;14.56;74.34;97111.52;1542141;92;25769;-75
2022/06/13 05:28:44;;;;;;;5.97;4.17;;;;;;;14.70;74.11;97114.22;1550034;92;25930;-76
2022/06/13 05:31:18;;;;;;;4.37;3.90;;;;;;;14.85;73.86;97104.70;1549741;92;25872;-77
2022/06/13 05:33:48;;;;;;;4.72;4.25;;;;;;;14.98;73.64;97105.17;1515536;93;27490;-77
2022/06/13 05:36:19;;;;;;;8.38;4.25;;;;;;;15.09;73.43;97102.91;1497815;95;26427;-78
2022/06/13 05:38:58;;;;;;;7.75;4.53;;;;;;;15.22;73.32;97096.31;1497853;95;26638;-78
2022/06/13 05:41:25;;;;;;;4.85;4.35;;;;;;;15.35;73.20;97094.61;1497875;95;25860;-76
2022/06/13 05:43:53;;;;;;;3.90;3.60;;;;;;;15.48;73.18;97086.11;1497911;94;25822;-77
2022/06/13 05:46:26;;;;;;;6.17;4.00;;;;;;;15.62;72.91;97087.14;1537125;90;27508;-80
2022/06/13 05:48:54;;;;;;;5.87;4.03;;;;;;;15.73;72.83;97076.69;1632403;87;26043;-77
2022/06/13 05:51:20;;;;;;;5.65;3.58;;;;;;;15.88;72.41;97086.95;1610241;89;25840;-76
2022/06/13 05:53:47;;;;;;;7.50;4.12;;;;;;;16.06;71.97;97089.37;1607550;89;25783;-77
2022/06/13 05:56:14;;;;;;;3.83;3.20;;;;;;;16.20;71.76;97083.27;1607638;89;26038;-77
2022/06/13 05:58:40;;;;;;;3.60;3.30;;;;;;;16.36;71.34;97082.08;1607712;89;27428;-76
2022/06/13 06:01:07;;;;;;;6.50;3.70;;;;;;;16.51;70.95;97079.53;1607359;88;25819;-76
2022/06/13 06:03:34;;;;;;;7.10;3.55;;;;;;;16.62;70.66;97079.95;1663671;82;26947;-76
2022/06/13 06:06:02;;;;;;;4.60;3.92;;;;;;;16.82;70.16;97084.22;1761911;81;26631;-76
2022/06/13 06:08:34;;;;;;;6.53;3.67;;;;;;;16.97;69.67;97081.34;1762213;81;25837;-76
2022/06/13 06:11:01;;;;;;;5.08;3.72;;;;;;;17.10;69.43;97079.55;1762257;81;28201;-79
2022/06/13 06:13:30;;;;;;;4.60;3.42;;;;;;;17.27;69.17;97073.39;1761997;81;25750;-76
2022/06/13 06:15:59;;;;;;;7.08;3.05;;;;;;;17.41;68.78;97072.40;1762133;81;25771;-76
2022/06/13 06:18:29;;;;;;;6.22;3.77;;;;;;;17.55;68.49;97076.31;1762141;81;25764;-77
2022/06/13 06:20:56;;;;;;;3.83;2.95;;;;;;;17.70;67.98;97070.16;1762064;81;25756;-77
2022/06/13 06:23:23;;;;;;;5.70;3.30;;;;;;;17.87;67.92;97070.81;1762124;81;27408;-76
2022/06/13 06:25:50;;;;;;;4.47;3.15;;;;;;;18.05;67.21;97073.06;1762051;81;25803;-77
2022/06/13 06:28:25;;;;;;;5.35;2.77;;;;;;;18.18;66.45;97067.10;1762161;81;25767;-77
2022/06/13 06:30:54;;;;;;;3.83;2.90;;;;;;;18.32;66.07;97070.98;1762195;81;26354;-76
2022/06/13 06:33:21;;;;;;;3.15;2.60;;;;;;;18.52;66.13;97062.55;1773494;79;25726;-77
2022/06/13 06:35:48;;;;;;;6.25;3.45;;;;;;;18.73;65.17;97069.72;1796073;79;27469;-79
2022/06/13 06:38:16;;;;;;;6.08;2.77;;;;;;;18.84;64.50;97060.42;1795982;79;25906;-79
2022/06/13 06:40:43;;;;;;;8.43;3.00;;;;;;;18.98;64.38;97060.17;1795918;79;25772;-75
2022/06/13 06:43:10;;;;;;;4.10;2.50;;;;;;;19.13;64.00;97061.27;1795843;79;25811;-80
2022/06/13 06:45:37;;;;;;;4.85;2.87;;;;;;;19.26;63.20;97053.88;1796210;79;25649;-76
2022/06/13 06:48:05;;;;;;;6.20;2.62;;;;;;;19.38;62.58;97051.13;1796013;79;27553;-77
2022/06/13 06:50:34;;;;;;;7.95;2.50;;;;;;;19.50;61.85;97054.97;1796004;79;25737;-78
2022/06/13 06:53:01;;;;;;;3.92;2.92;;;;;;;19.60;61.75;97050.84;1796019;79;25747;-75
2022/06/13 07:01:05;;;;;;;5.00;2.52;;;;;;;19.97;60.31;97042.78;1795868;79;27569;-76
2022/06/13 07:03:32;;;;;;;6.67;2.85;;;;;;;20.06;60.00;97035.06;1796081;79;25779;-78
2022/06/13 07:05:58;;;;;;;4.03;2.80;;;;;;;20.21;59.63;97035.55;1796028;79;25704;-77
2022/06/13 07:08:25;;;;;;;4.45;2.90;;;;;;;20.32;59.09;97030.28;1780442;79;25432;-80
2022/06/13 07:10:51;;;;;;;5.00;2.95;;;;;;;20.44;58.95;97025.30;1796018;79;25863;-78
2022/06/13 07:13:19;;;;;;;4.45;2.72;;;;;;;20.59;58.50;97030.42;1796072;79;28043;-80
2022/06/13 07:15:48;;;;;;;6.30;2.60;;;;;;;20.71;58.40;97019.92;1795733;79;25250;-78
2022/06/13 07:18:15;;;;;;;4.30;2.72;;;;;;;20.84;58.15;97017.91;1786942;79;25277;-76
2022/06/13 07:20:41;;;;;;;3.00;2.70;;;;;;;20.95;57.66;97009.86;1795851;79;25640;-78
2022/06/13 07:23:08;;;;;;;3.20;2.83;;;;;;;21.06;57.47;97003.17;1796076;79;25850;-77
2022/06/13 07:25:35;;;;;;;4.30;2.50;;;;;;;21.17;56.94;97004.72;1795847;79;28089;-77
2022/06/13 07:28:01;;;;;;;4.50;2.75;;;;;;;21.29;56.74;97006.28;1796137;79;25715;-81
2022/06/13 07:30:30;;;;;;;3.62;2.40;;;;;;;21.38;56.23;97004.54;1796110;79;25753;-78
2022/06/13 07:32:57;;;;;;;3.65;2.60;;;;;;;21.48;55.96;97005.84;1796093;79;25728;-78
2022/06/13 07:35:26;;;;;;;5.03;2.77;;;;;;;21.55;55.58;97003.55;1796108;79;25881;-78
2022/06/13 07:40:32;;;;;;;6.92;2.75;;;;;;;21.76;54.98;96995.89;1722411;83;25727;-79
2022/06/13 07:43:02;;;;;;;6.03;2.50;;;;;;;21.88;54.96;96997.11;1722506;83;25744;-81
2022/06/13 07:45:33;;;;;;;4.30;2.20;;;;;;;22.06;54.85;96989.24;1722574;83;25761;-78
2022/06/13 07:48:00;;;;;;;4.80;3.05;;;;;;;22.20;54.27;96987.41;1723045;83;25802;-76
2022/06/13 07:50:28;;;;;;;5.03;2.67;;;;;;;22.33;53.90;96982.55;1722614;83;27461;-78
2022/06/13 07:52:57;;;;;;;4.35;2.70;;;;;;;22.43;53.44;96976.91;1722517;83;25804;-79
2022/06/13 07:55:26;;;;;;;3.08;2.37;;;;;;;22.56;53.21;96967.91;1722248;83;25838;-78
2022/06/13 07:57:53;;;;;;;3.72;2.72;;;;;;;22.77;52.93;96982.73;1722382;83;26299;-77
2022/06/13 08:00:25;;;;;;;5.58;2.60;;;;;;;23.07;53.11;96966.25;1722521;83;25911;-79
2022/06/13 08:05:21;;;;;;;7.83;2.80;;;;;;;23.97;51.80;96969.23;1688108;84;25811;-79
2022/06/13 08:07:48;;;;;;;4.25;2.27;;;;;;;24.51;51.46;96968.09;1659708;86;26870;-80
2022/06/13 08:10:15;;;;;;;3.40;1.90;;;;;;;25.04;50.70;96967.63;1688333;84;25892;-79
2022/06/13 08:12:44;;;;;;;3.20;2.42;;;;;;;25.54;49.96;96967.42;1659554;86;26051;-80
2022/06/13 08:15:13;;;;;;;2.45;2.08;;;;;;;25.66;49.06;96971.00;1688288;84;27559;-80
2022/06/13 08:17:41;;;;;;;2.33;2.08;;;;;;;25.55;48.60;96979.29;1676696;85;25495;-80
2022/06/13 08:20:09;;;;;;;1.87;1.77;;;;;;;25.83;48.11;96971.08;1686872;85;25857;-80
2022/06/13 08:22:46;;;;;;;4.33;2.40;;;;;;;26.32;48.10;96977.42;1697737;84;25848;-82
2022/06/13 08:25:25;;;;;;;2.52;2.30;;;;;;;26.85;47.43;96967.41;1697457;84;25970;-80
2022/06/13 08:27:52;;;;;;;6.72;1.75;;;;;;;27.47;47.42;96965.05;1697586;84;28447;-82
2022/06/13 08:30:19;;;;;;;2.62;2.42;;;;;;;28.07;46.71;96965.39;1683637;84;25811;-80
2022/06/13 08:32:46;;;;;;;2.33;2.05;;;;;;;28.56;45.95;96961.02;1669255;85;25853;-79
2022/06/13 08:35:14;;;;;;;2.92;2.08;;;;;;;28.81;44.80;96961.98;1688748;82;26592;-81
2022/06/13 08:37:40;;;;;;;2.27;2.00;;;;;;;29.01;44.25;96954.77;1697872;82;25944;-80
2022/06/13 08:40:10;;;;;;;3.20;2.00;;;;;;;29.24;43.91;96954.63;1715155;82;27462;-80
2022/06/13 08:42:44;;;;;;;2.33;1.50;;;;;;;29.54;43.25;96956.70;1717457;82;25502;-82
2022/06/13 08:45:21;;;;;;;2.55;2.15;;;;;;;29.46;42.03;96952.06;1688432;82;25846;-80
2022/06/13 08:48:06;;;;;;;2.15;2.00;;;;;;;29.33;42.21;96953.97;1718102;81;25770;-81
2022/06/13 08:50:41;;;;;;;2.70;2.15;;;;;;;29.02;41.22;96946.09;1717294;82;25528;-82
2022/06/13 08:53:24;;;;;;;2.30;2.10;;;;;;;28.73;41.91;96935.08;1714137;82;27369;-81
2022/06/13 08:55:56;;;;;;;2.10;2.00;;;;;;;29.10;41.65;96939.43;1730848;82;25791;-80
2022/06/13 08:58:43;;;;;;;3.75;2.08;;;;;;;29.45;41.48;96936.54;1716868;83;25816;-80
2022/06/13 09:01:20;;;;;;;2.65;2.00;;;;;;;29.88;40.96;96937.95;1700212;84;25771;-81
2022/06/13 09:04:07;;;;;;;3.10;2.30;;;;;;;30.19;40.46;96938.19;1602646;88;25582;-82
2022/06/13 09:06:44;;;;;;;3.12;2.12;;;;;;;30.61;40.52;96937.92;1571392;91;27587;-80
2022/06/13 09:09:15;;;;;;;4.75;2.12;;;;;;;30.94;39.68;96930.72;1608523;89;25876;-82
2022/06/13 09:11:56;;;;;;;2.45;2.00;;;;;;;31.28;39.35;96927.91;1605804;89;25775;-82
2022/06/13 09:14:40;;;;;;;3.20;2.00;;;;;;;31.61;38.97;96922.84;1578904;90;25816;-81
2022/06/13 09:17:21;;;;;;;4.42;2.05;;;;;;;31.48;38.28;96926.29;1512030;94;26959;-83
2022/06/13 09:20:17;;;;;;;2.55;2.35;;;;;;;31.68;37.60;96912.45;1512467;94;27471;-82
2022/06/13 09:22:48;;;;;;;3.00;1.95;;;;;;;32.03;37.75;96919.50;1513294;94;25765;-82
2022/06/13 09:25:45;;;;;;;2.45;1.90;;;;;;;32.21;36.69;96912.39;1513403;94;25880;-83
2022/06/13 09:28:37;;;;;;;2.72;2.15;;;;;;;32.03;36.98;96914.72;1471534;97;25962;-81
2022/06/13 09:31:21;;;;;;;2.85;2.33;;;;;;;31.63;36.61;96907.95;1494784;94;25996;-81
2022/06/13 09:33:54;;;;;;;5.65;2.50;;;;;;;31.03;36.67;96907.13;1446130;98;27455;-80
2022/06/13 09:36:32;;;;;;;6.55;2.30;;;;;;;30.72;36.56;96905.63;1490143;96;25913;-82
2022/06/13 09:39:09;;;;;;;9.03;3.65;;;;;;;30.37;36.57;96907.55;1473798;97;25936;-79
2022/06/13 09:42:06;;;;;;;7.90;3.40;;;;;;;30.10;36.87;96912.47;1433356;97;25900;-82
2022/06/13 09:44:56;;;;;;;5.25;3.77;;;;;;;29.80;37.13;96909.10;1472033;97;25938;-78
2022/06/13 09:47:28;;;;;;;9.38;3.75;;;;;;;28.91;37.83;96917.70;1411103;101;27455;-79
2022/06/13 09:50:22;;;;;;;;;;;;;;;28.38;38.93;96912.92;1412538;101;25964;-82
2022/06/13 09:53:12;;;;;;;9.58;3.85;;;;;;;28.13;39.21;96910.53;1424427;99;25787;-78
2022/06/13 09:55:51;;;;;;;5.70;3.30;;;;;;;27.83;39.66;96906.95;1421250;99;26422;-78
2022/06/13 09:58:55;;;;;;;8.85;4.20;;;;;;;27.64;39.89;96912.11;1383376;102;25592;-78
2022/06/13 10:01:35;;;;;;;11.53;4.17;;;;;;;27.36;40.12;96904.20;1371545;103;27526;-76
2022/06/13 10:04:23;;;;;;;7.05;4.03;;;;;;;27.15;40.55;96904.68;1380925;103;25934;-79
2022/06/13 10:07:04;;;;;;;6.78;4.12;;;;;;;26.84;41.09;96904.86;1369380;104;25991;-77
2022/06/13 10:09:48;;;;;;;5.75;4.05;;;;;;;26.43;41.57;96899.87;1384790;101;26573;-78
2022/06/13 10:12:29;;;;;;;4.67;4.20;;;;;;;26.03;41.72;96906.06;1389316;101;26955;-79
2022/06/13 10:15:13;;;;;;;7.45;4.30;;;;;;;25.62;42.51;96900.91;1424054;100;27499;-77
2022/06/13 10:18:22;;;;;;;9.50;4.00;;;;;;;25.38;42.92;96906.23;1427339;99;25718;-78
2022/06/13 10:20:57;;;;;;;7.33;4.55;;;;;;;25.26;43.47;96912.92;1405388;102;25799;-78
2022/06/13 10:24:00;;;;;;;5.17;4.67;;;;;;;25.00;44.05;96904.49;1376370;103;43735;-78
2022/06/13 10:27:06;;;;;;;7.30;4.37;;;;;;;25.04;44.63;96898.59;1386465;103;25396;-78
2022/06/13 10:29:56;;;;;;;8.28;5.28;;;;;;;24.82;45.03;96899.16;1389953;102;27504;-78
2022/06/13 10:32:43;;;;;;;4.87;4.33;;;;;;;24.63;45.42;96894.67;1391946;102;25710;-77
2022/06/13 10:35:30;;;;;;;4.92;4.03;;;;;;;24.45;45.68;96901.17;1429333;94;26021;-77
2022/06/13 10:38:46;;;;;;;7.87;4.15;;;;;;;24.30;45.88;96889.12;1527516;90;25868;-75
2022/06/13 10:41:13;;;;;;;8.98;4.85;;;;;;;24.38;45.75;96892.53;1553273;92;25749;-77
2022/06/13 10:43:42;;;;;;;4.85;4.20;;;;;;;24.40;45.47;96902.66;1553249;92;27479;-78
2022/06/13 10:46:13;;;;;;;7.60;4.78;;;;;;;24.26;45.65;96897.22;1552973;92;26020;-76
2022/06/13 10:48:51;;;;;;;7.90;4.75;;;;;;;24.11;46.06;96907.74;1553199;92;25799;-76
2022/06/13 10:51:18;;;;;;;7.20;5.30;;;;;;;23.91;46.33;96917.29;1549840;89;26495;-76
2022/06/13 10:54:08;;;;;;;10.95;5.50;;;;;;;23.83;46.63;96928.45;1594531;89;25772;-76
2022/06/13 10:56:51;;;;;;;7.30;5.53;;;;;;;23.61;47.05;96935.27;1594846;89;27417;-77
2022/06/13 10:59:32;;;;;;;8.63;6.00;;;;;;;23.34;47.92;96950.61;1611092;89;25845;-78
2022/06/13 11:02:06;;;;;;;8.33;5.70;;;;;;;23.24;48.55;96954.94;1584484;90;25875;-80
2022/06/13 11:04:36;;;;;;;13.60;6.20;;;;;;;22.92;49.82;96939.28;1584707;90;25925;-76
2022/06/13 11:07:18;;;;;;;8.33;6.35;;;;;;;22.56;50.70;96950.02;1584706;90;25758;-76
2022/06/13 11:09:51;;;;;;;;;;;;;;;22.41;51.31;96957.69;1624637;87;27465;-76
2022/06/13 11:12:29;;;;;;;;;;;;;;;22.37;52.59;96962.95;1630578;87;25895;-78
2022/06/13 11:23:56;;;;;;;14.87;7.80;;;;;;;21.81;55.29;96955.45;1617375;88;28362;-77
2022/06/13 11:29:17;;;;;;;10.82;7.12;;;;;;;21.61;55.72;96951.59;1617453;88;25824;-76
2022/06/13 11:31:59;;;;;;;9.00;7.00;;;;;;;21.49;56.17;96958.84;1617606;88;25846;-75
2022/06/13 11:34:33;;;;;;;11.78;7.40;;;;;;;21.44;56.50;96953.97;1588616;89;25718;-77
2022/06/13 11:37:18;;;;;;;8.13;7.00;;;;;;;21.33;56.84;96961.51;1549621;92;27380;-76
2022/06/13 11:39:50;;;;;;;7.00;6.17;;;;;;;21.21;57.11;96954.22;1646377;85;25880;-77
2022/06/13 11:45:07;;;;;;;10.05;5.80;;;;;;;21.22;57.92;96937.20;1556539;92;26625;-76
2022/06/13 11:47:45;;;;;;;10.03;5.70;;;;;;;21.22;58.08;96943.51;1539062;93;25831;-78
2022/06/13 11:50:20;;;;;;;6.75;5.58;;;;;;;21.20;58.29;96952.03;1572573;91;27601;-78
2022/06/13 11:55:43;;;;;;;9.23;6.10;;;;;;;21.29;59.13;96941.23;1575681;91;25797;-78
2022/06/13 11:58:09;;;;;;;10.30;6.08;;;;;;;21.20;59.08;96941.05;1572838;91;25936;-79
2022/06/13 12:00:49;;;;;;;11.50;6.20;;;;;;;21.21;59.27;96939.13;1573274;91;25542;-77
2022/06/13 12:03:21;;;;;;;8.48;5.90;;;;;;;21.20;59.47;96935.56;1575812;91;27399;-78
2022/06/13 12:05:53;;;;;;;7.10;5.80;;;;;;;21.28;59.79;96942.88;1575974;91;25851;-78
2022/06/13 12:08:24;;;;;;;7.10;6.03;;;;;;;21.29;60.09;96951.39;1572849;91;32529;-78
2022/06/13 12:11:17;;;;;;;9.80;5.95;;;;;;;21.32;60.14;96960.42;1575817;91;25795;-76
2022/06/13 12:13:47;;;;;;;11.43;6.17;;;;;;;21.27;60.41;96957.72;1575830;91;25835;-76
2022/06/13 12:16:27;;;;;;;8.03;5.70;;;;;;;21.30;60.28;96958.52;1568244;91;27652;-77
2022/06/13 12:19:30;;;;;;;7.55;5.50;;;;;;;21.38;60.16;96959.24;1552098;92;25939;-78
2022/06/13 12:22:11;;;;;;;10.60;5.55;;;;;;;21.43;59.75;96963.31;1554975;92;25912;-77
2022/06/13 12:25:00;;;;;;;8.73;5.67;;;;;;;21.35;59.75;96962.59;1525710;92;25824;-76
2022/06/13 12:27:46;;;;;;;10.08;5.97;;;;;;;21.32;59.97;96957.67;1514659;94;25838;-77
2022/06/13 12:30:49;;;;;;;9.38;5.53;;;;;;;21.38;60.35;96956.50;1531338;92;27415;-77
2022/06/13 12:33:33;;;;;;;6.87;5.33;;;;;;;21.38;60.35;96956.50;1567604;91;25633;-76
2022/06/13 12:36:22;;;;;;;7.78;5.05;;;;;;;21.40;60.19;96958.41;1581166;88;25523;-78
2022/06/13 12:39:12;;;;;;;12.35;5.28;;;;;;;21.37;60.65;96954.89;1586198;90;25877;-77
2022/06/13 12:41:53;;;;;;;6.83;5.12;;;;;;;21.37;60.65;96954.89;1623162;85;25657;-76
2022/06/13 12:44:37;;;;;;;10.55;6.05;;;;;;;21.42;60.22;96958.94;1744919;79;27463;-76
2022/06/13 12:47:43;;;;;;;8.28;5.35;;;;;;;21.50;60.12;96948.67;1737702;82;26677;-76